Aviation Digital Data Service (ADDS)

Output produced by METARs form (1031 UTC 20 September 2019)
found at http://aviationweather.gov/metar/data/
 
METAR text: KDKB 201015Z AUTO 18004KT 7SM CLR 18/18 A3011 RMK AO2 LTG DSNT S T01800180
Conditions at: KDKB (DE KALB , IL, US) observed 1015 UTC 20 September 2019
Temperature: 18.0°C (64°F)
Dewpoint: 18.0°C (64°F) [RH = 100%]
Pressure (altimeter): 30.11 inches Hg (1019.7 mb)
Winds: from the S (180 degrees) at 5 MPH (4 knots; 2.1 m/s)
Visibility: 7 miles (11 km)
Ceiling: at least 12,000 feet AGL
Clouds: sky clear below 12,000 feet AGL
Weather: automated observation with no human augmentation;
there may or may not be significant weather present at this time